Time;durP1;ratioP1;P1;durP2;ratioP2;P2;SDS_P1;SDS_P2;PMS_P1;PMS_P2;Temp;Humidity;BMP_temperature;BMP_pressure;BME280_temperature;BME280_humidity;BME280_pressure;Samples;Min_cycle;Max_cycle;Signal;HPM_P1;HPM_P2
2021/03/18 00:02:12;;;;;;;7.03;2.97;;;0.40;99.90;;;-1.67;85.10;102351.69;4866840;28;102536;-39
2021/03/18 00:04:39;;;;;;;7.88;3.20;;;0.30;99.90;;;-1.72;85.00;102345.75;4866274;28;104570;-39
2021/03/18 00:07:07;;;;;;;7.18;2.97;;;0.30;99.90;;;-1.78;86.05;102341.63;4883011;28;102543;-39
2021/03/18 00:09:34;;;;;;;5.85;2.80;;;0.20;99.90;;;-1.79;85.69;102328.38;4851260;28;104641;-39
2021/03/18 00:12:02;;;;;;;7.35;3.03;;;0.20;99.90;;;-1.82;85.90;102328.56;4867315;28;104314;-39
2021/03/18 00:14:29;;;;;;;8.75;3.33;;;0.20;99.90;;;-1.85;85.47;102323.41;4885157;28;102636;-39
2021/03/18 00:16:57;;;;;;;9.13;3.43;;;0.20;99.90;;;-1.86;86.66;102324.31;4886127;28;103547;-39
2021/03/18 00:19:24;;;;;;;5.07;2.55;;;0.10;99.90;;;-1.88;86.09;102329.78;4885554;28;104377;-39
2021/03/18 00:21:51;;;;;;;6.38;2.90;;;0.10;99.90;;;-1.87;87.08;102334.19;4884306;28;103435;-39
2021/03/18 00:24:18;;;;;;;9.57;3.27;;;0.10;99.90;;;-1.91;86.67;102325.47;4901044;28;102493;-39
2021/03/18 00:26:46;;;;;;;6.70;3.13;;;0.10;99.90;;;-1.91;86.83;102340.69;4901615;28;103114;-39
2021/03/18 00:29:14;;;;;;;7.83;3.40;;;0.10;99.90;;;-1.92;86.37;102334.47;4886016;28;102580;-39
2021/03/18 00:31:55;;;;;;;7.35;3.15;;;0.10;99.90;;;-1.92;86.51;102337.13;4901965;28;104320;-39
2021/03/18 00:34:22;;;;;;;;;;;0.10;99.90;;;-1.96;86.59;102335.59;4889732;28;102692;-39
2021/03/18 00:36:50;;;;;;;6.45;2.53;;;0.10;99.90;;;-1.99;86.01;102332.25;4905285;28;102392;-39
2021/03/18 00:39:17;;;;;;;9.30;2.80;;;0.00;99.90;;;-2.01;86.46;102327.00;4904903;28;102825;-39
2021/03/18 00:41:45;;;;;;;5.53;2.60;;;0.00;99.90;;;-2.03;87.19;102337.78;4889622;28;102391;-39
2021/03/18 00:44:13;;;;;;;4.57;2.35;;;0.00;99.90;;;-2.01;86.94;102340.38;4905104;28;102280;-39
2021/03/18 00:46:40;;;;;;;6.47;2.75;;;0.00;99.90;;;-2.02;87.13;102338.66;4888972;28;102448;-39
2021/03/18 00:49:09;;;;;;;4.45;2.30;;;0.00;99.90;;;-2.02;87.40;102344.84;4904989;28;103708;-39
2021/03/18 00:51:37;;;;;;;11.63;3.22;;;0.00;99.90;;;-2.06;88.16;102337.13;4888734;28;103686;-39
2021/03/18 00:54:05;;;;;;;5.97;2.42;;;0.00;99.90;;;-2.07;87.31;102338.91;4888416;28;102667;-39
2021/03/18 00:56:33;;;;;;;5.28;2.25;;;-0.10;99.90;;;-2.11;87.68;102332.03;4904439;28;102597;-39
2021/03/18 00:59:01;;;;;;;9.85;2.50;;;-0.10;99.90;;;-2.14;87.12;102340.25;4888783;28;102676;-39
2021/03/18 01:01:29;;;;;;;3.95;2.20;;;-0.10;99.90;;;-2.14;87.20;102345.59;4888804;28;102376;-39
2021/03/18 01:03:59;;;;;;;6.18;2.28;;;-0.10;99.90;;;-2.16;87.69;102355.53;4887686;28;102624;-39
2021/03/18 01:06:31;;;;;;;5.15;2.17;;;-0.10;99.90;;;-2.19;87.69;102366.41;4904515;28;105235;-39
2021/03/18 01:09:03;;;;;;;5.70;2.40;;;-0.20;99.90;;;-2.21;87.77;102363.81;4889072;28;102757;-39
2021/03/18 01:11:36;;;;;;;6.13;2.33;;;-0.20;99.90;;;-2.22;88.19;102362.09;4888441;28;103425;-39
2021/03/18 01:14:09;;;;;;;5.97;2.53;;;-0.20;99.90;;;-2.20;88.44;102356.69;4887386;28;102668;-39
2021/03/18 01:16:38;;;;;;;6.53;2.53;;;-0.20;99.90;;;-2.19;87.44;102356.56;4904013;28;102491;-39
2021/03/18 01:19:10;;;;;;;5.75;2.40;;;-0.20;99.90;;;-2.19;87.50;102351.22;4888201;28;102685;-39
2021/03/18 01:21:43;;;;;;;6.50;3.00;;;-0.20;99.90;;;-2.24;87.69;102355.97;4886498;28;105483;-39
2021/03/18 01:24:13;;;;;;;5.55;2.47;;;-0.20;99.90;;;-2.29;87.63;102336.69;4904273;28;104491;-39
2021/03/18 01:26:43;;;;;;;9.32;2.50;;;-0.20;99.90;;;-2.30;87.83;102351.00;4903785;28;102527;-39
2021/03/18 01:29:14;;;;;;;4.55;2.42;;;-0.30;99.90;;;-2.33;88.11;102351.19;4904012;28;102629;-39
2021/03/18 01:31:43;;;;;;;6.43;2.50;;;-0.30;99.90;;;-2.31;87.42;102349.28;4904461;28;103366;-39
2021/03/18 01:34:12;;;;;;;5.63;2.30;;;-0.30;99.90;;;-2.34;88.20;102352.13;4886960;28;102520;-39
2021/03/18 01:36:40;;;;;;;7.28;2.53;;;-0.30;99.90;;;-2.33;87.45;102351.19;4887989;28;105343;-39
2021/03/18 01:39:08;;;;;;;5.47;2.40;;;-0.30;99.90;;;-2.29;88.22;102355.41;4887770;28;105131;-39
2021/03/18 01:41:35;;;;;;;;;;;-0.30;99.90;;;-2.26;88.26;102352.53;4905178;28;102538;-39
2021/03/18 01:44:04;;;;;;;7.50;2.80;;;-0.30;99.90;;;-2.25;88.31;102351.59;4886856;28;103233;-39
2021/03/18 01:46:34;;;;;;;5.35;2.50;;;-0.30;99.90;;;-2.25;88.21;102346.25;4904658;28;102373;-39
2021/03/18 01:49:04;;;;;;;4.95;2.53;;;-0.30;99.90;;;-2.23;88.00;102340.81;4903568;28;102758;-39
2021/03/18 01:51:33;;;;;;;6.95;2.75;;;-0.30;99.90;;;-2.18;88.34;102334.22;4904112;28;103559;-39
2021/03/18 01:54:00;;;;;;;5.40;2.53;;;-0.20;99.90;;;-2.20;88.64;102336.13;4903152;28;102624;-39
2021/03/18 01:56:28;;;;;;;8.07;2.90;;;-0.20;99.90;;;-2.24;88.63;102329.25;4888327;28;103404;-39
2021/03/18 01:58:56;;;;;;;5.78;2.78;;;-0.20;99.90;;;-2.23;88.40;102341.66;4887868;28;102594;-39
2021/03/18 02:01:25;;;;;;;6.45;2.97;;;-0.20;99.90;;;-2.23;88.52;102338.97;4888037;28;105400;-39
2021/03/18 02:03:53;;;;;;;5.97;2.83;;;-0.20;99.90;;;-2.25;89.56;102346.25;4886660;28;102962;-39
2021/03/18 02:06:22;;;;;;;6.78;3.13;;;-0.20;99.90;;;-2.28;89.55;102350.91;4887487;28;103516;-39
2021/03/18 02:08:49;;;;;;;8.68;3.00;;;-0.30;99.90;;;-2.28;88.97;102350.91;4903494;28;103732;-39
2021/03/18 02:11:17;;;;;;;7.45;2.88;;;-0.30;99.90;;;-2.32;89.08;102350.22;4887125;28;104352;-39
2021/03/18 02:13:44;;;;;;;7.10;2.75;;;-0.30;99.90;;;-2.34;89.17;102344.97;4956472;23;103193;-40
2021/03/18 02:16:14;;;;;;;7.78;3.20;;;-0.30;99.90;;;-2.33;89.39;102344.00;4919280;28;102664;-39
2021/03/18 02:19:10;;;;;;;8.27;3.10;;;-0.30;99.90;;;-2.31;89.58;102339.44;4919320;28;102777;-40
2021/03/18 02:21:39;;;;;;;5.82;2.75;;;-0.30;99.90;;;-2.28;88.91;102337.53;4901758;28;103615;-40
2021/03/18 02:24:36;;;;;;;6.85;2.72;;;-0.30;99.90;;;-2.30;88.95;102334.97;4898978;28;102713;-40
2021/03/18 02:27:33;;;;;;;5.03;2.72;;;-0.30;99.90;;;-2.31;89.21;102328.72;4883972;28;104262;-40
2021/03/18 02:30:28;;;;;;;6.55;2.80;;;-0.30;99.90;;;-2.33;88.52;102324.44;4900308;28;102429;-40
2021/03/18 02:33:19;;;;;;;6.78;2.92;;;-0.40;99.90;;;-2.35;89.30;102329.03;4883807;28;104409;-40
2021/03/18 02:36:03;;;;;;;5.57;2.92;;;-0.40;99.90;;;-2.34;89.58;102322.72;4884517;28;103735;-42
2021/03/18 02:38:41;;;;;;;6.75;3.13;;;-0.40;99.90;;;-2.33;88.94;102327.97;4883991;28;104379;-40
2021/03/18 02:41:23;;;;;;;5.95;3.10;;;-0.30;99.90;;;-2.33;89.63;102324.44;4884164;28;105604;-40
2021/03/18 02:44:15;;;;;;;9.48;2.97;;;-0.30;99.90;;;-2.32;89.35;102321.66;4899042;28;103403;-40
2021/03/18 02:46:45;;;;;;;7.15;2.55;;;-0.30;99.90;;;-2.32;89.57;102318.16;4883827;28;102637;-40
2021/03/18 02:49:16;;;;;;;7.45;3.40;;;-0.30;99.90;;;-2.32;89.79;102305.63;4899796;28;103351;-42
2021/03/18 02:51:46;;;;;;;9.05;3.20;;;-0.30;99.90;;;-2.31;89.45;102303.81;4899958;28;102550;-40
2021/03/18 02:54:20;;;;;;;5.97;2.80;;;-0.40;99.90;;;-2.25;90.10;102286.56;4898400;28;103602;-40
2021/03/18 02:56:55;;;;;;;6.95;3.20;;;-0.30;99.90;;;-2.23;90.21;102292.69;4883656;28;103603;-40
2021/03/18 02:59:33;;;;;;;9.15;3.00;;;-0.30;99.90;;;-2.24;89.42;102288.28;4884968;28;106135;-40
2021/03/18 03:02:06;;;;;;;8.30;3.50;;;-0.30;99.90;;;-2.21;89.68;102283.59;4884021;28;102630;-40
2021/03/18 03:04:39;;;;;;;7.93;3.40;;;-0.30;99.90;;;-2.20;90.79;102285.31;4898745;28;104457;-40
2021/03/18 03:07:11;;;;;;;6.47;3.20;;;-0.20;99.90;;;-2.15;90.02;102284.16;4914935;28;103427;-40
2021/03/18 03:09:45;;;;;;;6.78;3.33;;;-0.20;99.90;;;-2.13;90.70;102282.25;4868235;28;104197;-40
2021/03/18 03:12:16;;;;;;;5.90;3.00;;;-0.20;99.90;;;-2.14;90.26;102280.53;4915137;28;102314;-40
2021/03/18 03:14:47;;;;;;;4.60;2.60;;;-0.20;99.90;;;-2.19;90.51;102289.72;4882795;28;103414;-41
2021/03/18 03:17:21;;;;;;;5.97;2.75;;;-0.20;99.90;;;-2.22;90.35;102292.56;4883473;28;102521;-40
2021/03/18 03:19:52;;;;;;;7.43;2.90;;;-0.20;99.90;;;-2.24;90.35;102297.16;4867563;28;103406;-40
2021/03/18 03:22:22;;;;;;;9.45;3.42;;;-0.20;99.90;;;-2.25;90.26;102298.09;4881226;28;102629;-40
2021/03/18 03:24:53;;;;;;;6.20;2.75;;;-0.30;99.90;;;-2.21;90.62;102294.28;4898241;28;102979;-40
2021/03/18 03:27:23;;;;;;;5.90;3.10;;;-0.30;99.90;;;-2.17;89.84;102293.16;4883316;28;102676;-40
2021/03/18 03:29:53;;;;;;;7.68;3.70;;;-0.20;99.90;;;-2.15;90.29;102300.22;4883097;28;103341;-40
2021/03/18 03:32:21;;;;;;;5.38;3.47;;;-0.20;99.90;;;-2.17;89.90;102301.16;4883109;28;103525;-40
2021/03/18 03:34:49;;;;;;;5.65;3.30;;;-0.20;99.90;;;-2.17;90.31;102294.97;4851147;28;103433;-40
2021/03/18 03:37:17;;;;;;;7.68;3.42;;;-0.20;99.90;;;-2.15;90.81;102289.50;4852120;28;102379;-41
2021/03/18 03:39:45;;;;;;;7.50;3.40;;;-0.20;99.90;;;-2.16;90.09;102286.00;4882727;28;104659;-41
2021/03/18 03:42:14;;;;;;;7.68;3.20;;;-0.20;99.90;;;-2.18;91.04;102290.59;4867328;28;104303;-42
2021/03/18 03:44:42;;;;;;;6.72;3.28;;;-0.20;99.90;;;-2.22;90.35;102287.22;4882233;28;105670;-40
2021/03/18 03:47:11;;;;;;;5.90;2.72;;;-0.20;99.90;;;-2.25;90.82;102290.09;4882942;28;103704;-40
2021/03/18 03:49:41;;;;;;;7.80;3.10;;;-0.20;99.90;;;-2.26;90.09;102288.38;4867213;28;104565;-40
2021/03/18 03:52:24;;;;;;;8.05;3.25;;;-0.30;99.90;;;-2.26;91.05;102296.38;4884362;28;102581;-40
2021/03/18 03:55:04;;;;;;;8.85;3.50;;;-0.30;99.90;;;-2.26;90.30;102299.06;4882418;28;103374;-40
2021/03/18 03:57:46;;;;;;;8.15;3.88;;;-0.30;99.90;;;-2.25;90.50;102306.13;4882906;28;102476;-40
2021/03/18 04:00:16;;;;;;;6.20;2.95;;;-0.30;99.90;;;-2.22;90.20;102315.78;4866832;28;103498;-40
2021/03/18 04:02:57;;;;;;;5.88;3.38;;;-0.20;99.90;;;-2.19;90.69;102313.78;4882289;28;104706;-40
2021/03/18 04:05:28;;;;;;;9.90;3.35;;;-0.30;99.90;;;-2.20;91.09;102317.41;4881921;28;102514;-40
2021/03/18 04:08:02;;;;;;;7.20;3.50;;;-0.20;99.90;;;-2.17;90.39;102327.91;4882647;28;102649;-42
2021/03/18 04:10:32;;;;;;;7.35;3.13;;;-0.20;99.90;;;-2.13;91.11;102327.72;4867022;28;103409;-40
2021/03/18 04:13:02;;;;;;;6.80;3.50;;;-0.20;99.90;;;-2.07;90.60;102309.50;4883628;28;105207;-40
2021/03/18 04:15:35;;;;;;;7.30;3.35;;;-0.20;99.90;;;-2.04;90.94;102313.81;4881571;28;104428;-40
2021/03/18 04:18:06;;;;;;;9.40;3.53;;;-0.10;99.90;;;-2.02;90.65;102314.59;4882789;28;102844;-40
2021/03/18 04:20:38;;;;;;;7.25;3.50;;;-0.10;99.90;;;-2.00;90.49;102310.00;4882582;28;103488;-40
2021/03/18 04:23:10;;;;;;;10.57;4.00;;;-0.10;99.90;;;-1.94;91.19;102312.28;4882526;28;102562;-40
2021/03/18 04:25:41;;;;;;;9.30;4.45;;;0.00;99.90;;;-1.90;90.63;102313.81;4897206;28;105314;-40
2021/03/18 04:28:10;;;;;;;6.63;3.90;;;0.00;99.90;;;-1.90;91.09;102303.13;4882377;28;104215;-40
2021/03/18 04:30:41;;;;;;;9.95;4.00;;;0.00;99.90;;;-1.87;91.28;102304.75;4866717;28;102862;-40
2021/03/18 04:33:11;;;;;;;7.25;3.78;;;0.00;99.90;;;-1.83;91.15;102302.75;4883197;28;104501;-40
2021/03/18 04:35:42;;;;;;;6.95;3.75;;;0.10;99.90;;;-1.79;91.12;102298.94;4882423;28;103429;-42
2021/03/18 04:38:10;;;;;;;7.90;3.95;;;0.10;99.90;;;-1.78;90.81;102300.66;4882454;28;103623;-42
2021/03/18 04:40:38;;;;;;;8.52;3.65;;;0.10;99.90;;;-1.77;91.09;102299.69;4882921;28;102471;-40
2021/03/18 04:43:07;;;;;;;9.40;4.40;;;0.20;99.90;;;-1.74;91.15;102294.16;4882011;28;102855;-40
2021/03/18 04:45:35;;;;;;;8.43;4.03;;;0.10;99.90;;;-1.70;91.39;102289.47;4881962;28;102349;-40
2021/03/18 04:48:05;;;;;;;10.43;4.00;;;0.20;99.90;;;-1.62;91.33;102296.06;4882821;28;102258;-40
2021/03/18 04:50:34;;;;;;;9.90;4.35;;;0.20;99.90;;;-1.58;91.67;102285.19;4881822;28;104588;-40
2021/03/18 04:53:02;;;;;;;9.70;4.50;;;0.30;99.90;;;-1.56;92.11;102293.97;4882461;28;103751;-41
2021/03/18 04:55:30;;;;;;;9.32;4.20;;;0.30;99.90;;;-1.51;92.58;102286.50;4897679;28;104528;-40
2021/03/18 04:58:03;;;;;;;7.57;4.37;;;0.40;99.90;;;-1.49;92.60;102290.78;4898329;28;103325;-40
2021/03/18 05:00:33;;;;;;;8.38;4.05;;;0.40;99.90;;;-1.46;91.95;102281.72;4883698;28;103349;-40
2021/03/18 05:03:06;;;;;;;10.27;4.75;;;0.40;99.90;;;-1.40;92.65;102291.19;4882537;28;102325;-41
2021/03/18 05:05:36;;;;;;;9.50;4.40;;;0.50;99.90;;;-1.33;92.88;102279.97;4881828;28;102353;-40
2021/03/18 05:08:07;;;;;;;7.75;4.38;;;0.50;99.90;;;-1.31;92.39;102277.19;4881983;28;103479;-40
2021/03/18 05:10:41;;;;;;;9.02;4.55;;;0.60;99.90;;;-1.26;93.13;102283.09;4897338;28;104381;-40
2021/03/18 05:13:11;;;;;;;6.90;3.95;;;0.60;99.90;;;-1.23;93.24;102282.06;4897893;28;105471;-40
2021/03/18 05:15:41;;;;;;;6.22;4.00;;;0.60;99.90;;;-1.21;92.56;102272.09;4897829;28;104394;-40
2021/03/18 05:18:14;;;;;;;10.27;4.70;;;0.70;99.90;;;-1.19;92.90;102275.53;4898818;28;103609;-40
2021/03/18 05:20:45;;;;;;;11.00;4.38;;;0.70;99.90;;;-1.18;92.52;102269.22;4885417;28;102423;-40
2021/03/18 05:23:15;;;;;;;7.20;3.88;;;0.70;99.90;;;-1.17;92.69;102260.22;4900816;28;103779;-40
2021/03/18 05:25:46;;;;;;;9.38;4.47;;;0.70;99.90;;;-1.16;92.96;102264.63;4901003;28;106365;-40
2021/03/18 05:28:15;;;;;;;14.40;4.57;;;0.70;99.90;;;-1.16;92.87;102265.50;4885591;28;103275;-40
2021/03/18 05:30:44;;;;;;;8.35;4.18;;;0.70;99.90;;;-1.15;93.26;102266.34;4869207;28;105873;-40
2021/03/18 05:33:11;;;;;;;7.05;4.03;;;0.80;99.90;;;-1.14;92.43;102257.34;4886681;28;102656;-40
2021/03/18 05:35:43;;;;;;;11.52;5.00;;;0.70;99.90;;;-1.13;92.91;102256.38;4900409;28;105390;-40
2021/03/18 05:38:14;;;;;;;7.82;4.13;;;0.80;99.90;;;-1.16;92.83;102257.47;4885420;28;102521;-42
2021/03/18 05:40:48;;;;;;;8.15;4.78;;;0.70;99.90;;;-1.16;93.15;102254.78;4900962;28;102472;-40
2021/03/18 05:43:16;;;;;;;11.13;5.15;;;0.80;99.90;;;-1.17;92.58;102263.78;4884258;28;104681;-37
2021/03/18 05:45:43;;;;;;;8.88;4.57;;;0.70;99.90;;;-1.15;92.42;102255.63;4885306;28;102856;-40
2021/03/18 05:48:13;;;;;;;7.55;4.13;;;0.70;99.90;;;-1.12;92.30;102262.59;4901003;28;102713;-40
2021/03/18 05:50:43;;;;;;;8.35;4.70;;;0.80;99.90;;;-1.11;92.15;102262.50;4900587;28;102604;-40
2021/03/18 05:53:11;;;;;;;8.35;4.47;;;0.80;99.90;;;-1.11;92.71;102259.81;4885773;28;102651;-40
2021/03/18 05:55:41;;;;;;;9.07;4.53;;;0.80;99.90;;;-1.12;92.34;102257.25;4884562;28;102474;-40
2021/03/18 05:58:11;;;;;;;9.23;4.55;;;0.80;99.90;;;-1.14;91.72;102248.47;4900698;28;105111;-40
2021/03/18 06:00:40;;;;;;;11.80;5.20;;;0.80;99.90;;;-1.12;91.65;102247.38;4886695;28;102425;-42
2021/03/18 06:03:07;;;;;;;7.78;4.57;;;0.80;99.90;;;-1.09;91.97;102244.50;4884375;28;103578;-42
2021/03/18 06:05:44;;;;;;;7.25;4.10;;;0.80;99.90;;;-1.07;91.76;102250.59;4884980;28;103818;-40
2021/03/18 06:08:12;;;;;;;11.85;5.38;;;0.80;99.90;;;-1.07;91.89;102249.75;4900457;28;102669;-40
2021/03/18 06:10:39;;;;;;;;;;;0.80;99.90;;;-1.08;91.41;102246.22;4887179;28;102393;-40
2021/03/18 06:13:07;;;;;;;9.48;4.15;;;0.80;99.90;;;-1.08;92.00;102243.53;4875311;28;102807;-40
2021/03/18 06:15:35;;;;;;;13.13;4.90;;;0.80;99.90;;;-1.04;91.49;102245.06;4902819;28;104402;-40
2021/03/18 06:18:03;;;;;;;12.27;5.38;;;0.80;99.90;;;-0.99;92.12;102244.75;4887750;28;102519;-41
2021/03/18 06:20:31;;;;;;;9.38;4.50;;;0.80;99.90;;;-0.92;92.10;102238.03;4904331;28;103398;-41
2021/03/18 06:23:07;;;;;;;;;;;0.90;99.90;;;-0.87;92.02;102229.69;4903785;28;102501;-41
2021/03/18 06:25:37;;;;;;;12.32;5.28;;;1.00;99.90;;;-0.81;91.30;102239.97;4902941;28;104378;-40
2021/03/18 06:28:27;;;;;;;10.93;5.25;;;1.00;99.90;;;-0.77;92.20;102241.53;4903435;28;102746;-40
2021/03/18 06:31:07;;;;;;;11.90;5.50;;;1.10;99.90;;;-0.72;92.36;102238.50;4903038;28;102354;-40
2021/03/18 06:33:54;;;;;;;10.90;4.82;;;1.10;99.90;;;-0.68;92.07;102229.28;4902209;28;103435;-41
2021/03/18 06:36:34;;;;;;;7.95;4.50;;;1.10;99.90;;;-0.65;91.45;102223.75;4904344;28;102345;-40
2021/03/18 06:39:15;;;;;;;12.10;5.67;;;1.20;99.90;;;-0.60;91.88;102236.81;4903449;28;102575;-41
2021/03/18 06:41:47;;;;;;;12.00;4.72;;;1.20;99.90;;;-0.56;91.97;102226.75;4902974;28;103556;-40
2021/03/18 06:44:28;;;;;;;8.00;4.45;;;1.20;99.90;;;-0.55;92.13;102223.94;4902186;28;103039;-40
2021/03/18 06:47:09;;;;;;;8.35;4.88;;;1.20;99.90;;;-0.51;92.05;102222.81;4903910;28;104598;-40
2021/03/18 06:49:38;;;;;;;14.50;5.10;;;1.30;99.90;;;-0.44;92.03;102229.47;4903913;28;102587;-40
2021/03/18 06:52:11;;;;;;;10.75;4.78;;;1.30;99.90;;;-0.37;92.04;102223.66;4903671;28;102303;-38
2021/03/18 06:54:42;;;;;;;9.48;4.72;;;1.40;99.90;;;-0.33;92.21;102225.16;4903173;28;104528;-40
2021/03/18 06:57:13;;;;;;;8.73;5.00;;;1.40;99.90;;;-0.26;91.97;102233.66;4887740;28;102513;-40
2021/03/18 06:59:43;;;;;;;9.98;5.30;;;1.50;99.90;;;-0.18;92.05;102231.28;4887454;28;102971;-40
2021/03/18 07:02:14;;;;;;;9.25;5.00;;;1.60;99.90;;;-0.10;92.22;102223.56;4902920;28;102432;-41
2021/03/18 07:04:47;;;;;;;9.35;5.05;;;1.60;99.90;;;-0.01;92.20;102219.34;4902131;28;102746;-41
2021/03/18 07:07:20;;;;;;;9.63;5.03;;;1.70;99.90;;;0.13;91.85;102226.44;4902727;28;102419;-40
2021/03/18 07:09:50;;;;;;;7.72;4.85;;;1.80;99.90;;;0.25;91.43;102222.88;4904334;28;102632;-40
2021/03/18 07:12:27;;;;;;;10.60;5.15;;;1.90;99.90;;;0.36;91.28;102226.59;4903595;28;102583;-40
2021/03/18 07:14:59;;;;;;;14.77;5.22;;;2.00;99.90;;;0.43;91.12;102228.75;4901687;28;102574;-40
2021/03/18 07:17:38;;;;;;;8.60;5.03;;;2.10;99.90;;;0.55;90.67;102218.94;4902434;28;103482;-40
2021/03/18 07:20:20;;;;;;;9.65;4.82;;;2.20;99.90;;;0.71;90.01;102213.28;4903606;28;102792;-42
2021/03/18 07:22:57;;;;;;;11.73;5.40;;;2.30;99.90;;;0.82;89.82;102214.34;4902749;28;102960;-40
2021/03/18 07:25:44;;;;;;;11.43;5.13;;;2.40;99.90;;;0.94;89.07;102215.25;4902212;28;102500;-40
2021/03/18 07:28:14;;;;;;;10.55;5.10;;;2.50;99.90;;;1.07;88.65;102212.50;4902180;28;102610;-42
2021/03/18 07:30:43;;;;;;;12.25;5.45;;;2.70;99.90;;;1.16;88.01;102209.13;4903564;28;102476;-41
2021/03/18 07:33:10;;;;;;;10.35;5.75;;;2.70;99.90;;;1.26;87.91;102210.13;4903431;28;102506;-40
2021/03/18 07:35:37;;;;;;;11.48;5.53;;;2.80;99.90;;;1.40;88.01;102218.97;4885789;28;103758;-41
2021/03/18 07:38:05;;;;;;;10.27;5.70;;;3.00;99.90;;;1.47;86.53;102211.31;4902169;28;104282;-40
2021/03/18 07:40:32;;;;;;;11.10;5.53;;;3.00;99.90;;;1.56;86.19;102218.66;4917499;28;102581;-40
2021/03/18 07:43:01;;;;;;;8.15;5.35;;;3.10;99.90;;;1.64;85.54;102220.75;4902336;28;102476;-41
2021/03/18 07:45:30;;;;;;;7.40;5.00;;;3.20;99.90;;;1.72;85.40;102221.00;4901496;28;104423;-41
2021/03/18 07:48:02;;;;;;;11.05;5.07;;;3.30;99.90;;;1.79;85.12;102216.84;4902948;28;102364;-40
2021/03/18 07:50:36;;;;;;;9.30;5.10;;;3.40;99.90;;;1.86;84.95;102220.78;4902645;28;102565;-40
2021/03/18 07:53:06;;;;;;;12.05;4.88;;;3.40;99.90;;;1.88;84.45;102222.50;4903421;28;103346;-40
2021/03/18 07:55:35;;;;;;;14.93;5.47;;;3.50;99.90;;;1.95;84.14;102208.41;4901163;28;102634;-41
2021/03/18 07:58:03;;;;;;;9.05;5.18;;;3.50;99.90;;;2.06;84.68;102218.31;4901408;28;103377;-41
2021/03/18 08:00:33;;;;;;;10.27;5.13;;;3.60;99.90;;;2.10;83.84;102214.41;4903258;28;102581;-40
2021/03/18 08:03:20;;;;;;;11.27;5.35;;;3.70;99.90;;;2.15;83.30;102209.53;4901568;28;106442;-40
2021/03/18 08:05:49;;;;;;;12.57;5.25;;;3.70;99.90;;;2.21;83.66;102210.03;4901838;28;103578;-40
2021/03/18 08:08:35;;;;;;;;;;;3.80;99.90;;;2.25;83.52;102208.78;4887444;28;103353;-40
2021/03/18 08:11:16;;;;;;;14.63;5.50;;;3.80;99.90;;;2.33;82.60;102211.72;4902915;28;103219;-40
2021/03/18 08:13:45;;;;;;;12.80;5.53;;;3.90;99.90;;;2.38;82.70;102206.81;4902894;28;103340;-40
2021/03/18 08:16:32;;;;;;;10.35;5.68;;;3.90;99.90;;;2.47;82.14;102207.06;4902249;28;102328;-40
2021/03/18 08:19:06;;;;;;;10.60;6.43;;;4.00;99.90;;;2.48;81.79;102215.00;4901816;28;104495;-40
2021/03/18 08:21:45;;;;;;;10.88;5.57;;;4.00;99.90;;;2.51;80.50;102213.91;4901901;28;102739;-42
2021/03/18 08:24:14;;;;;;;;;;;4.10;99.90;;;2.55;82.24;102205.44;4903475;28;103647;-40
2021/03/18 08:27:03;;;;;;;10.77;6.18;;;4.10;99.90;;;2.70;81.20;102206.03;4902083;28;103923;-40
2021/03/18 08:29:50;;;;;;;12.07;5.87;;;4.20;99.90;;;2.75;80.24;102204.78;4903349;28;102576;-40
2021/03/18 08:32:29;;;;;;;9.75;5.57;;;4.30;99.90;;;2.87;82.12;102217.22;4901575;28;102859;-38
2021/03/18 08:35:00;;;;;;;16.15;7.13;;;4.40;99.90;;;2.95;80.91;102216.59;4901572;28;104342;-39
2021/03/18 08:37:43;;;;;;;11.57;6.25;;;4.40;99.90;;;3.08;81.55;102205.66;4902769;28;102814;-40
2021/03/18 08:40:30;;;;;;;16.55;7.50;;;4.50;99.90;;;3.20;80.26;102204.63;4902761;28;102448;-41
2021/03/18 08:43:08;;;;;;;15.40;7.43;;;4.70;99.90;;;3.37;80.62;102199.63;4902595;28;103618;-41
2021/03/18 08:45:40;;;;;;;15.68;7.82;;;4.80;99.90;;;3.48;78.94;102194.19;4902646;28;103678;-40
2021/03/18 08:48:20;;;;;;;17.88;8.07;;;4.90;99.90;;;3.55;78.56;102205.28;4901553;28;102471;-41
2021/03/18 08:50:50;;;;;;;20.08;7.85;;;5.00;99.90;;;3.66;79.29;102207.03;4902817;28;104577;-40
2021/03/18 08:53:32;;;;;;;16.83;8.55;;;5.10;99.90;;;3.78;78.42;102207.81;4902622;28;104408;-40
2021/03/18 08:56:00;;;;;;;19.92;8.38;;;5.20;99.90;;;3.82;76.81;102210.13;4904865;28;103402;-41
2021/03/18 08:58:27;;;;;;;26.23;10.23;;;5.30;99.90;;;3.89;76.57;102215.88;4904878;28;103418;-40
2021/03/18 09:00:54;;;;;;;17.58;8.55;;;5.30;99.90;;;3.94;76.93;102216.31;4904361;28;104220;-40
2021/03/18 09:03:22;;;;;;;19.23;7.73;;;5.40;99.90;;;4.01;76.28;102219.34;4905384;28;102594;-39
2021/03/18 09:06:05;;;;;;;15.05;7.22;;;5.50;99.90;;;4.03;76.49;102222.75;4904227;28;102505;-40
2021/03/18 09:08:35;;;;;;;14.77;7.47;;;5.50;99.90;;;4.13;78.64;102212.84;4905822;28;102214;-40
2021/03/18 09:11:02;;;;;;;10.75;6.13;;;5.60;99.90;;;4.29;78.22;102214.19;4904631;28;104792;-40
2021/03/18 09:13:31;;;;;;;7.17;4.87;;;5.70;99.90;;;4.27;74.63;102216.19;4919544;28;102554;-41
2021/03/18 09:16:00;;;;;;;9.52;4.57;;;5.70;99.90;;;4.43;76.44;102221.06;4903477;28;105211;-40
2021/03/18 09:18:33;;;;;;;12.82;4.97;;;5.80;99.90;;;4.53;74.73;102218.38;4904540;28;102945;-40
2021/03/18 09:21:08;;;;;;;12.30;5.10;;;5.90;99.90;;;4.53;73.16;102227.34;4903970;28;105397;-40
2021/03/18 09:23:39;;;;;;;8.68;4.53;;;5.90;99.90;;;4.59;74.45;102225.94;4904633;28;102619;-40
2021/03/18 09:26:12;;;;;;;7.75;4.63;;;6.00;99.90;;;4.66;73.49;102218.13;4888920;28;102532;-40
2021/03/18 09:28:46;;;;;;;10.32;5.10;;;6.00;99.90;;;4.72;74.15;102215.72;4904594;28;102296;-40
2021/03/18 09:31:19;;;;;;;7.70;4.03;;;6.10;99.90;;;4.62;72.43;102214.84;4906106;28;102848;-40
2021/03/18 09:33:47;;;;;;;7.80;4.07;;;6.10;99.90;;;4.68;72.29;102216.16;4903431;28;102674;-40
2021/03/18 09:36:17;;;;;;;;;;;6.10;99.90;;;4.75;72.89;102212.72;4905532;28;102335;-40
2021/03/18 09:39:10;;;;;;;7.75;3.80;;;6.20;99.90;;;4.96;72.38;102213.63;4904164;28;104811;-40
2021/03/18 09:41:45;;;;;;;9.50;3.80;;;6.30;99.90;;;5.12;71.15;102213.06;4905347;28;103436;-40
2021/03/18 09:44:16;;;;;;;6.63;3.67;;;6.50;99.90;;;5.14;69.27;102209.19;4904235;28;102346;-40
2021/03/18 09:46:49;;;;;;;7.00;3.65;;;6.60;99.90;;;5.26;69.89;102209.06;4905714;28;102832;-41
2021/03/18 09:49:35;;;;;;;8.98;4.25;;;6.60;99.90;;;5.38;71.05;102207.91;4905417;28;102768;-40
2021/03/18 09:52:08;;;;;;;5.97;3.63;;;6.70;99.90;;;5.39;68.42;102201.50;4904003;28;103460;-40
2021/03/18 09:54:37;;;;;;;6.00;3.83;;;6.80;99.90;;;5.50;68.43;102208.59;4904647;28;103729;-40
2021/03/18 09:57:09;;;;;;;7.88;3.67;;;6.80;99.90;;;5.51;67.17;102206.75;4904430;28;104596;-40
2021/03/18 09:59:38;;;;;;;8.30;4.43;;;6.90;99.90;;;5.46;68.53;102201.78;4904860;28;102392;-40
2021/03/18 10:02:08;;;;;;;7.90;3.80;;;6.80;99.90;;;5.65;69.02;102200.03;4904692;28;102466;-40
2021/03/18 10:04:45;;;;;;;8.40;3.95;;;7.00;99.90;;;5.67;68.54;102198.03;4902531;28;102576;-40
2021/03/18 10:07:14;;;;;;;8.50;3.90;;;7.00;99.90;;;5.76;68.16;102194.44;4904894;28;102410;-40
2021/03/18 10:09:46;;;;;;;6.13;3.40;;;7.10;99.90;;;5.94;68.41;102185.56;4903764;28;102646;-40
2021/03/18 10:12:20;;;;;;;6.65;3.80;;;7.20;99.90;;;5.98;68.25;102182.41;4904577;28;104293;-40
2021/03/18 10:15:02;;;;;;;9.55;3.92;;;7.30;99.90;;;6.09;67.39;102184.06;4903215;28;102445;-40
2021/03/18 10:17:45;;;;;;;5.75;2.95;;;7.40;99.90;;;6.02;64.13;102181.13;4905226;28;102384;-40
2021/03/18 10:20:32;;;;;;;5.75;3.13;;;7.40;99.90;;;6.18;64.16;102188.63;4904820;28;103032;-40
2021/03/18 10:23:10;;;;;;;6.78;2.80;;;7.50;99.90;;;6.31;64.89;102187.41;4902274;28;104294;-40
2021/03/18 10:25:41;;;;;;;6.97;2.97;;;7.60;99.90;;;6.37;64.04;102185.94;4904444;28;102484;-40
2021/03/18 10:28:13;;;;;;;6.53;3.20;;;7.70;99.90;;;6.45;64.67;102178.78;4919168;28;104502;-40
2021/03/18 10:30:44;;;;;;;4.38;2.63;;;7.80;99.90;;;6.53;63.46;102178.03;4904603;28;102601;-40
2021/03/18 10:33:25;;;;;;;9.45;2.97;;;7.80;99.90;;;6.39;61.98;102163.13;4904602;28;103302;-40
2021/03/18 10:35:54;;;;;;;7.07;3.55;;;7.80;99.90;;;6.39;63.74;102165.84;4904376;28;102505;-40